sensor_id;sensor_type;location;lat;lon;timestamp;P1;durP1;ratioP1;P2;durP2;ratioP2
12900;SDS011;6518;50.930;5.344;2023-07-02T00:01:44;15.88;;;9.10;;
12900;SDS011;6518;50.930;5.344;2023-07-02T00:04:12;19.13;;;8.77;;
12900;SDS011;6518;50.930;5.344;2023-07-02T00:06:41;18.08;;;9.52;;
12900;SDS011;6518;50.930;5.344;2023-07-02T00:09:10;18.38;;;8.95;;
12900;SDS011;6518;50.930;5.344;2023-07-02T00:11:37;19.13;;;9.98;;
12900;SDS011;6518;50.930;5.344;2023-07-02T00:14:04;19.75;;;9.73;;
12900;SDS011;6518;50.930;5.344;2023-07-02T00:16:31;17.05;;;10.05;;
12900;SDS011;6518;50.930;5.344;2023-07-02T00:18:58;19.38;;;10.48;;
12900;SDS011;6518;50.930;5.344;2023-07-02T00:21:25;18.67;;;9.60;;
12900;SDS011;6518;50.930;5.344;2023-07-02T00:23:53;19.15;;;10.45;;
12900;SDS011;6518;50.930;5.344;2023-07-02T00:26:23;20.23;;;10.80;;
12900;SDS011;6518;50.930;5.344;2023-07-02T00:28:51;19.70;;;10.52;;
12900;SDS011;6518;50.930;5.344;2023-07-02T00:31:18;17.98;;;11.68;;
12900;SDS011;6518;50.930;5.344;2023-07-02T00:33:45;26.17;;;12.18;;
12900;SDS011;6518;50.930;5.344;2023-07-02T00:36:13;22.55;;;12.23;;
12900;SDS011;6518;50.930;5.344;2023-07-02T00:38:40;22.67;;;12.20;;
12900;SDS011;6518;50.930;5.344;2023-07-02T00:41:08;23.95;;;11.88;;
12900;SDS011;6518;50.930;5.344;2023-07-02T00:43:36;21.98;;;12.60;;
12900;SDS011;6518;50.930;5.344;2023-07-02T00:46:04;18.88;;;12.00;;
12900;SDS011;6518;50.930;5.344;2023-07-02T00:48:31;24.70;;;12.88;;
12900;SDS011;6518;50.930;5.344;2023-07-02T00:50:59;23.08;;;13.20;;
12900;SDS011;6518;50.930;5.344;2023-07-02T00:53:26;27.98;;;14.48;;
12900;SDS011;6518;50.930;5.344;2023-07-02T00:55:53;23.60;;;12.88;;
12900;SDS011;6518;50.930;5.344;2023-07-02T00:58:19;25.17;;;13.68;;
12900;SDS011;6518;50.930;5.344;2023-07-02T01:00:48;31.65;;;13.63;;
12900;SDS011;6518;50.930;5.344;2023-07-02T01:03:15;24.33;;;13.45;;
12900;SDS011;6518;50.930;5.344;2023-07-02T01:05:42;22.83;;;13.13;;
12900;SDS011;6518;50.930;5.344;2023-07-02T01:08:09;24.58;;;14.05;;
12900;SDS011;6518;50.930;5.344;2023-07-02T01:10:37;22.20;;;13.27;;
12900;SDS011;6518;50.930;5.344;2023-07-02T01:13:06;22.23;;;14.02;;
12900;SDS011;6518;50.930;5.344;2023-07-02T01:15:37;27.20;;;14.05;;
12900;SDS011;6518;50.930;5.344;2023-07-02T01:18:05;28.25;;;14.25;;
12900;SDS011;6518;50.930;5.344;2023-07-02T01:20:35;23.00;;;13.90;;
12900;SDS011;6518;50.930;5.344;2023-07-02T01:23:03;25.70;;;13.48;;
12900;SDS011;6518;50.930;5.344;2023-07-02T01:25:30;23.83;;;14.13;;
12900;SDS011;6518;50.930;5.344;2023-07-02T01:28:01;24.23;;;13.82;;
12900;SDS011;6518;50.930;5.344;2023-07-02T01:30:28;26.20;;;13.52;;
12900;SDS011;6518;50.930;5.344;2023-07-02T01:32:55;24.15;;;13.90;;
12900;SDS011;6518;50.930;5.344;2023-07-02T01:35:22;24.38;;;14.38;;
12900;SDS011;6518;50.930;5.344;2023-07-02T01:37:50;22.77;;;14.02;;
12900;SDS011;6518;50.930;5.344;2023-07-02T01:40:18;23.05;;;13.55;;
12900;SDS011;6518;50.930;5.344;2023-07-02T01:42:45;25.17;;;14.02;;
12900;SDS011;6518;50.930;5.344;2023-07-02T01:45:12;28.73;;;14.68;;
12900;SDS011;6518;50.930;5.344;2023-07-02T01:47:39;25.20;;;14.25;;
12900;SDS011;6518;50.930;5.344;2023-07-02T01:50:06;27.63;;;14.90;;
12900;SDS011;6518;50.930;5.344;2023-07-02T01:52:33;24.48;;;13.82;;
12900;SDS011;6518;50.930;5.344;2023-07-02T01:55:02;29.73;;;15.43;;
12900;SDS011;6518;50.930;5.344;2023-07-02T01:57:29;28.30;;;15.55;;
12900;SDS011;6518;50.930;5.344;2023-07-02T01:59:56;25.90;;;14.48;;
12900;SDS011;6518;50.930;5.344;2023-07-02T02:02:23;23.35;;;14.65;;
12900;SDS011;6518;50.930;5.344;2023-07-02T02:04:50;23.75;;;13.98;;
12900;SDS011;6518;50.930;5.344;2023-07-02T02:07:17;23.48;;;15.95;;
12900;SDS011;6518;50.930;5.344;2023-07-02T02:09:44;27.20;;;15.10;;
12900;SDS011;6518;50.930;5.344;2023-07-02T02:12:12;25.23;;;14.60;;
12900;SDS011;6518;50.930;5.344;2023-07-02T02:14:40;30.02;;;15.35;;
12900;SDS011;6518;50.930;5.344;2023-07-02T02:17:07;26.85;;;15.07;;
12900;SDS011;6518;50.930;5.344;2023-07-02T02:19:34;26.92;;;15.77;;
12900;SDS011;6518;50.930;5.344;2023-07-02T02:22:01;26.63;;;16.20;;
12900;SDS011;6518;50.930;5.344;2023-07-02T02:24:28;29.20;;;15.75;;
12900;SDS011;6518;50.930;5.344;2023-07-02T02:26:54;29.23;;;16.63;;
12900;SDS011;6518;50.930;5.344;2023-07-02T02:29:23;29.70;;;16.27;;
12900;SDS011;6518;50.930;5.344;2023-07-02T02:31:50;27.15;;;16.23;;
12900;SDS011;6518;50.930;5.344;2023-07-02T02:34:16;26.90;;;16.63;;
12900;SDS011;6518;50.930;5.344;2023-07-02T02:36:43;28.90;;;16.42;;
12900;SDS011;6518;50.930;5.344;2023-07-02T02:39:12;28.63;;;17.05;;
12900;SDS011;6518;50.930;5.344;2023-07-02T02:41:39;27.90;;;16.45;;
12900;SDS011;6518;50.930;5.344;2023-07-02T02:44:06;26.92;;;16.98;;
12900;SDS011;6518;50.930;5.344;2023-07-02T02:46:34;28.08;;;16.75;;
12900;SDS011;6518;50.930;5.344;2023-07-02T02:49:01;27.95;;;16.52;;
12900;SDS011;6518;50.930;5.344;2023-07-02T02:51:28;30.17;;;18.10;;
12900;SDS011;6518;50.930;5.344;2023-07-02T02:53:54;33.55;;;17.70;;
12900;SDS011;6518;50.930;5.344;2023-07-02T02:56:21;33.30;;;17.90;;
12900;SDS011;6518;50.930;5.344;2023-07-02T02:58:48;28.83;;;16.77;;
12900;SDS011;6518;50.930;5.344;2023-07-02T03:01:15;36.70;;;18.20;;
12900;SDS011;6518;50.930;5.344;2023-07-02T03:03:43;33.28;;;18.15;;
12900;SDS011;6518;50.930;5.344;2023-07-02T03:06:11;31.23;;;17.60;;
12900;SDS011;6518;50.930;5.344;2023-07-02T03:08:39;27.42;;;17.25;;
12900;SDS011;6518;50.930;5.344;2023-07-02T03:11:07;32.58;;;17.80;;
12900;SDS011;6518;50.930;5.344;2023-07-02T03:13:34;32.65;;;18.35;;
12900;SDS011;6518;50.930;5.344;2023-07-02T03:16:00;29.38;;;17.55;;
12900;SDS011;6518;50.930;5.344;2023-07-02T03:18:27;35.92;;;18.55;;
12900;SDS011;6518;50.930;5.344;2023-07-02T03:20:56;32.20;;;18.88;;
12900;SDS011;6518;50.930;5.344;2023-07-02T03:23:22;31.10;;;18.33;;
12900;SDS011;6518;50.930;5.344;2023-07-02T03:25:49;32.38;;;18.80;;
12900;SDS011;6518;50.930;5.344;2023-07-02T03:28:16;33.85;;;18.98;;
12900;SDS011;6518;50.930;5.344;2023-07-02T03:30:43;33.65;;;19.67;;
12900;SDS011;6518;50.930;5.344;2023-07-02T03:33:10;37.17;;;20.52;;
12900;SDS011;6518;50.930;5.344;2023-07-02T03:35:37;32.65;;;19.40;;
12900;SDS011;6518;50.930;5.344;2023-07-02T03:38:05;32.03;;;19.00;;
12900;SDS011;6518;50.930;5.344;2023-07-02T03:40:32;30.00;;;18.40;;
12900;SDS011;6518;50.930;5.344;2023-07-02T03:42:59;34.58;;;18.73;;
12900;SDS011;6518;50.930;5.344;2023-07-02T03:45:25;32.58;;;19.95;;
12900;SDS011;6518;50.930;5.344;2023-07-02T03:47:52;33.40;;;19.90;;
12900;SDS011;6518;50.930;5.344;2023-07-02T03:50:19;35.15;;;19.02;;
12900;SDS011;6518;50.930;5.344;2023-07-02T03:52:46;31.77;;;18.90;;
12900;SDS011;6518;50.930;5.344;2023-07-02T03:55:14;33.70;;;18.98;;
12900;SDS011;6518;50.930;5.344;2023-07-02T03:57:41;36.00;;;19.77;;
12900;SDS011;6518;50.930;5.344;2023-07-02T04:00:08;35.80;;;20.20;;
12900;SDS011;6518;50.930;5.344;2023-07-02T04:02:36;33.78;;;20.77;;
12900;SDS011;6518;50.930;5.344;2023-07-02T04:05:03;38.57;;;20.47;;
12900;SDS011;6518;50.930;5.344;2023-07-02T04:07:31;41.78;;;21.70;;
12900;SDS011;6518;50.930;5.344;2023-07-02T04:09:57;38.03;;;20.77;;
12900;SDS011;6518;50.930;5.344;2023-07-02T04:12:26;35.28;;;21.40;;
12900;SDS011;6518;50.930;5.344;2023-07-02T04:14:53;40.60;;;20.95;;
12900;SDS011;6518;50.930;5.344;2023-07-02T04:17:20;37.08;;;21.20;;
12900;SDS011;6518;50.930;5.344;2023-07-02T04:19:47;34.88;;;20.25;;
12900;SDS011;6518;50.930;5.344;2023-07-02T04:22:14;38.67;;;21.27;;
12900;SDS011;6518;50.930;5.344;2023-07-02T04:24:41;35.75;;;20.90;;
12900;SDS011;6518;50.930;5.344;2023-07-02T04:27:08;35.05;;;20.50;;
12900;SDS011;6518;50.930;5.344;2023-07-02T04:29:36;37.08;;;19.90;;
12900;SDS011;6518;50.930;5.344;2023-07-02T04:32:03;38.88;;;21.70;;
12900;SDS011;6518;50.930;5.344;2023-07-02T04:34:30;37.15;;;21.15;;
12900;SDS011;6518;50.930;5.344;2023-07-02T04:36:57;34.00;;;20.13;;
12900;SDS011;6518;50.930;5.344;2023-07-02T04:39:24;43.75;;;21.27;;
12900;SDS011;6518;50.930;5.344;2023-07-02T04:41:51;40.55;;;20.55;;
12900;SDS011;6518;50.930;5.344;2023-07-02T04:44:18;37.83;;;22.13;;
12900;SDS011;6518;50.930;5.344;2023-07-02T04:46:57;44.13;;;22.20;;
12900;SDS011;6518;50.930;5.344;2023-07-02T04:49:24;35.05;;;21.30;;
12900;SDS011;6518;50.930;5.344;2023-07-02T04:51:51;36.13;;;21.75;;
12900;SDS011;6518;50.930;5.344;2023-07-02T04:54:18;37.88;;;21.20;;
12900;SDS011;6518;50.930;5.344;2023-07-02T04:56:46;40.83;;;22.05;;
12900;SDS011;6518;50.930;5.344;2023-07-02T04:59:13;37.75;;;22.23;;
12900;SDS011;6518;50.930;5.344;2023-07-02T05:01:40;39.53;;;22.20;;
12900;SDS011;6518;50.930;5.344;2023-07-02T05:04:09;36.65;;;21.58;;
12900;SDS011;6518;50.930;5.344;2023-07-02T05:06:36;37.13;;;22.30;;
12900;SDS011;6518;50.930;5.344;2023-07-02T05:09:03;41.53;;;22.20;;
12900;SDS011;6518;50.930;5.344;2023-07-02T05:11:30;39.60;;;23.52;;
12900;SDS011;6518;50.930;5.344;2023-07-02T05:13:56;37.45;;;22.13;;
12900;SDS011;6518;50.930;5.344;2023-07-02T05:16:23;41.10;;;22.42;;
12900;SDS011;6518;50.930;5.344;2023-07-02T05:18:50;40.38;;;22.15;;
12900;SDS011;6518;50.930;5.344;2023-07-02T05:21:18;44.10;;;23.08;;
12900;SDS011;6518;50.930;5.344;2023-07-02T05:23:46;45.90;;;23.02;;
12900;SDS011;6518;50.930;5.344;2023-07-02T05:26:13;42.08;;;23.52;;
12900;SDS011;6518;50.930;5.344;2023-07-02T05:28:40;44.22;;;23.00;;
12900;SDS011;6518;50.930;5.344;2023-07-02T05:31:07;37.20;;;22.13;;
12900;SDS011;6518;50.930;5.344;2023-07-02T05:33:34;37.78;;;21.77;;
12900;SDS011;6518;50.930;5.344;2023-07-02T05:36:01;38.70;;;22.92;;
12900;SDS011;6518;50.930;5.344;2023-07-02T05:38:29;42.00;;;22.77;;
12900;SDS011;6518;50.930;5.344;2023-07-02T05:40:56;41.65;;;22.67;;
12900;SDS011;6518;50.930;5.344;2023-07-02T05:43:23;40.83;;;22.73;;
12900;SDS011;6518;50.930;5.344;2023-07-02T05:45:50;45.40;;;23.38;;
12900;SDS011;6518;50.930;5.344;2023-07-02T05:48:18;44.65;;;23.92;;
12900;SDS011;6518;50.930;5.344;2023-07-02T05:50:45;48.30;;;24.05;;
12900;SDS011;6518;50.930;5.344;2023-07-02T05:53:12;41.28;;;22.88;;
12900;SDS011;6518;50.930;5.344;2023-07-02T05:55:41;41.55;;;23.80;;
12900;SDS011;6518;50.930;5.344;2023-07-02T05:58:08;46.08;;;22.67;;
12900;SDS011;6518;50.930;5.344;2023-07-02T06:00:35;43.25;;;22.88;;
12900;SDS011;6518;50.930;5.344;2023-07-02T06:03:02;43.88;;;24.45;;
12900;SDS011;6518;50.930;5.344;2023-07-02T06:05:29;41.83;;;23.58;;
12900;SDS011;6518;50.930;5.344;2023-07-02T06:07:56;40.17;;;24.73;;
12900;SDS011;6518;50.930;5.344;2023-07-02T06:10:22;45.88;;;24.48;;
12900;SDS011;6518;50.930;5.344;2023-07-02T06:12:51;42.35;;;23.25;;
12900;SDS011;6518;50.930;5.344;2023-07-02T06:15:18;54.85;;;24.10;;
12900;SDS011;6518;50.930;5.344;2023-07-02T06:17:45;41.63;;;23.67;;
12900;SDS011;6518;50.930;5.344;2023-07-02T06:20:12;45.05;;;24.08;;
12900;SDS011;6518;50.930;5.344;2023-07-02T06:22:39;48.28;;;25.60;;
12900;SDS011;6518;50.930;5.344;2023-07-02T06:25:07;44.50;;;25.08;;
12900;SDS011;6518;50.930;5.344;2023-07-02T06:27:34;46.60;;;25.35;;
12900;SDS011;6518;50.930;5.344;2023-07-02T06:30:03;45.25;;;25.13;;
12900;SDS011;6518;50.930;5.344;2023-07-02T06:32:31;47.25;;;25.20;;
12900;SDS011;6518;50.930;5.344;2023-07-02T06:34:58;45.58;;;24.45;;
12900;SDS011;6518;50.930;5.344;2023-07-02T06:37:24;42.42;;;24.42;;
12900;SDS011;6518;50.930;5.344;2023-07-02T06:39:51;43.88;;;24.35;;
12900;SDS011;6518;50.930;5.344;2023-07-02T06:42:18;44.25;;;24.10;;
12900;SDS011;6518;50.930;5.344;2023-07-02T06:44:45;45.22;;;24.13;;
12900;SDS011;6518;50.930;5.344;2023-07-02T06:47:13;45.55;;;25.30;;
12900;SDS011;6518;50.930;5.344;2023-07-02T06:49:40;45.95;;;25.15;;
12900;SDS011;6518;50.930;5.344;2023-07-02T06:52:07;46.83;;;25.13;;
12900;SDS011;6518;50.930;5.344;2023-07-02T06:54:34;41.47;;;24.67;;
12900;SDS011;6518;50.930;5.344;2023-07-02T06:57:01;40.13;;;24.15;;
12900;SDS011;6518;50.930;5.344;2023-07-02T06:59:28;45.88;;;25.42;;
12900;SDS011;6518;50.930;5.344;2023-07-02T07:01:55;43.00;;;25.15;;
12900;SDS011;6518;50.930;5.344;2023-07-02T07:04:23;44.50;;;24.25;;
12900;SDS011;6518;50.930;5.344;2023-07-02T07:06:50;42.03;;;24.30;;
12900;SDS011;6518;50.930;5.344;2023-07-02T07:09:17;40.55;;;24.95;;
12900;SDS011;6518;50.930;5.344;2023-07-02T07:11:44;42.13;;;24.23;;
12900;SDS011;6518;50.930;5.344;2023-07-02T07:14:11;46.88;;;25.52;;
12900;SDS011;6518;50.930;5.344;2023-07-02T07:16:38;41.50;;;23.42;;
12900;SDS011;6518;50.930;5.344;2023-07-02T07:19:05;47.67;;;25.38;;
12900;SDS011;6518;50.930;5.344;2023-07-02T07:21:34;39.78;;;24.15;;
12900;SDS011;6518;50.930;5.344;2023-07-02T07:24:00;40.08;;;23.02;;
12900;SDS011;6518;50.930;5.344;2023-07-02T07:26:27;41.85;;;24.05;;
12900;SDS011;6518;50.930;5.344;2023-07-02T07:28:54;44.38;;;23.88;;
12900;SDS011;6518;50.930;5.344;2023-07-02T07:31:23;39.80;;;22.98;;
12900;SDS011;6518;50.930;5.344;2023-07-02T07:33:49;40.35;;;23.10;;
12900;SDS011;6518;50.930;5.344;2023-07-02T07:36:17;39.58;;;22.95;;
12900;SDS011;6518;50.930;5.344;2023-07-02T07:38:46;36.05;;;22.83;;
12900;SDS011;6518;50.930;5.344;2023-07-02T07:41:13;40.75;;;24.25;;
12900;SDS011;6518;50.930;5.344;2023-07-02T07:43:40;41.40;;;23.02;;
12900;SDS011;6518;50.930;5.344;2023-07-02T07:46:07;42.67;;;23.65;;
12900;SDS011;6518;50.930;5.344;2023-07-02T07:48:33;40.83;;;23.23;;
12900;SDS011;6518;50.930;5.344;2023-07-02T07:51:00;49.05;;;23.88;;
12900;SDS011;6518;50.930;5.344;2023-07-02T07:53:27;35.33;;;22.33;;
12900;SDS011;6518;50.930;5.344;2023-07-02T07:55:56;36.15;;;22.80;;
12900;SDS011;6518;50.930;5.344;2023-07-02T07:58:22;42.97;;;22.67;;
12900;SDS011;6518;50.930;5.344;2023-07-02T08:00:50;38.28;;;24.40;;
12900;SDS011;6518;50.930;5.344;2023-07-02T08:03:16;37.80;;;21.77;;
12900;SDS011;6518;50.930;5.344;2023-07-02T08:05:43;38.78;;;22.40;;
12900;SDS011;6518;50.930;5.344;2023-07-02T08:08:10;39.33;;;20.85;;
12900;SDS011;6518;50.930;5.344;2023-07-02T08:10:37;37.55;;;20.23;;
12900;SDS011;6518;50.930;5.344;2023-07-02T08:13:05;35.05;;;20.63;;
12900;SDS011;6518;50.930;5.344;2023-07-02T08:15:33;32.17;;;20.27;;
12900;SDS011;6518;50.930;5.344;2023-07-02T08:18:00;31.20;;;18.60;;
12900;SDS011;6518;50.930;5.344;2023-07-02T08:20:28;29.60;;;16.55;;
12900;SDS011;6518;50.930;5.344;2023-07-02T08:22:55;33.28;;;18.15;;
12900;SDS011;6518;50.930;5.344;2023-07-02T08:25:22;33.63;;;18.25;;
12900;SDS011;6518;50.930;5.344;2023-07-02T08:27:52;36.33;;;19.05;;
12900;SDS011;6518;50.930;5.344;2023-07-02T08:30:20;28.60;;;17.45;;
12900;SDS011;6518;50.930;5.344;2023-07-02T08:32:47;32.58;;;16.27;;
12900;SDS011;6518;50.930;5.344;2023-07-02T08:35:14;29.08;;;17.90;;
12900;SDS011;6518;50.930;5.344;2023-07-02T08:37:40;30.38;;;17.48;;
12900;SDS011;6518;50.930;5.344;2023-07-02T08:40:15;30.00;;;17.05;;
12900;SDS011;6518;50.930;5.344;2023-07-02T08:42:43;31.00;;;16.60;;
12900;SDS011;6518;50.930;5.344;2023-07-02T08:45:12;26.63;;;16.02;;
12900;SDS011;6518;50.930;5.344;2023-07-02T08:47:41;24.60;;;14.07;;
12900;SDS011;6518;50.930;5.344;2023-07-02T08:50:08;23.85;;;14.32;;
12900;SDS011;6518;50.930;5.344;2023-07-02T08:52:35;24.92;;;13.38;;
12900;SDS011;6518;50.930;5.344;2023-07-02T08:55:02;29.05;;;15.23;;
12900;SDS011;6518;50.930;5.344;2023-07-02T08:57:30;21.73;;;12.25;;
12900;SDS011;6518;50.930;5.344;2023-07-02T08:59:57;28.73;;;13.80;;
12900;SDS011;6518;50.930;5.344;2023-07-02T09:02:31;26.67;;;13.82;;
12900;SDS011;6518;50.930;5.344;2023-07-02T09:04:59;20.13;;;10.80;;
12900;SDS011;6518;50.930;5.344;2023-07-02T09:07:27;24.20;;;12.57;;
12900;SDS011;6518;50.930;5.344;2023-07-02T09:09:54;21.10;;;11.23;;
12900;SDS011;6518;50.930;5.344;2023-07-02T09:12:24;21.77;;;12.02;;
12900;SDS011;6518;50.930;5.344;2023-07-02T09:14:55;23.98;;;12.88;;
12900;SDS011;6518;50.930;5.344;2023-07-02T09:17:26;19.42;;;10.63;;
12900;SDS011;6518;50.930;5.344;2023-07-02T09:19:55;18.88;;;9.43;;
12900;SDS011;6518;50.930;5.344;2023-07-02T09:22:25;17.55;;;10.07;;
12900;SDS011;6518;50.930;5.344;2023-07-02T09:24:52;18.55;;;9.32;;
12900;SDS011;6518;50.930;5.344;2023-07-02T09:27:19;16.60;;;8.77;;
12900;SDS011;6518;50.930;5.344;2023-07-02T09:29:49;14.13;;;8.20;;
12900;SDS011;6518;50.930;5.344;2023-07-02T09:32:24;17.38;;;8.93;;
12900;SDS011;6518;50.930;5.344;2023-07-02T09:34:53;13.82;;;8.70;;
12900;SDS011;6518;50.930;5.344;2023-07-02T09:37:21;13.00;;;8.40;;
12900;SDS011;6518;50.930;5.344;2023-07-02T09:39:50;16.17;;;9.40;;
12900;SDS011;6518;50.930;5.344;2023-07-02T09:42:18;15.70;;;9.20;;
12900;SDS011;6518;50.930;5.344;2023-07-02T09:44:45;18.30;;;9.57;;
12900;SDS011;6518;50.930;5.344;2023-07-02T09:47:12;15.45;;;8.52;;
12900;SDS011;6518;50.930;5.344;2023-07-02T09:49:44;13.93;;;8.13;;
12900;SDS011;6518;50.930;5.344;2023-07-02T09:52:15;18.13;;;9.27;;
12900;SDS011;6518;50.930;5.344;2023-07-02T09:54:44;15.18;;;8.23;;
12900;SDS011;6518;50.930;5.344;2023-07-02T09:57:12;14.82;;;8.70;;
12900;SDS011;6518;50.930;5.344;2023-07-02T09:59:40;15.05;;;8.38;;
12900;SDS011;6518;50.930;5.344;2023-07-02T10:02:07;14.40;;;8.23;;
12900;SDS011;6518;50.930;5.344;2023-07-02T10:04:41;15.88;;;8.45;;
12900;SDS011;6518;50.930;5.344;2023-07-02T10:07:09;19.60;;;8.57;;
12900;SDS011;6518;50.930;5.344;2023-07-02T10:09:37;16.95;;;8.50;;
12900;SDS011;6518;50.930;5.344;2023-07-02T10:12:18;16.30;;;8.63;;
12900;SDS011;6518;50.930;5.344;2023-07-02T10:14:47;18.80;;;8.68;;
12900;SDS011;6518;50.930;5.344;2023-07-02T10:17:24;16.27;;;8.05;;
12900;SDS011;6518;50.930;5.344;2023-07-02T10:19:53;15.20;;;8.68;;
12900;SDS011;6518;50.930;5.344;2023-07-02T10:22:21;15.60;;;8.25;;
12900;SDS011;6518;50.930;5.344;2023-07-02T10:24:52;16.27;;;8.57;;
12900;SDS011;6518;50.930;5.344;2023-07-02T10:27:33;19.35;;;9.13;;
12900;SDS011;6518;50.930;5.344;2023-07-02T10:30:01;15.68;;;9.00;;
12900;SDS011;6518;50.930;5.344;2023-07-02T10:32:30;18.98;;;9.32;;
12900;SDS011;6518;50.930;5.344;2023-07-02T10:34:58;18.27;;;9.77;;
12900;SDS011;6518;50.930;5.344;2023-07-02T10:37:28;16.30;;;9.80;;
12900;SDS011;6518;50.930;5.344;2023-07-02T10:40:02;17.60;;;9.75;;
12900;SDS011;6518;50.930;5.344;2023-07-02T10:42:31;15.93;;;10.02;;
12900;SDS011;6518;50.930;5.344;2023-07-02T10:45:00;18.35;;;10.70;;
12900;SDS011;6518;50.930;5.344;2023-07-02T10:47:27;18.63;;;10.80;;
12900;SDS011;6518;50.930;5.344;2023-07-02T10:49:55;17.65;;;10.50;;
12900;SDS011;6518;50.930;5.344;2023-07-02T10:52:22;18.95;;;10.57;;
12900;SDS011;6518;50.930;5.344;2023-07-02T10:54:48;17.63;;;10.50;;
12900;SDS011;6518;50.930;5.344;2023-07-02T10:57:18;20.13;;;10.57;;
12900;SDS011;6518;50.930;5.344;2023-07-02T10:59:46;16.95;;;9.82;;
12900;SDS011;6518;50.930;5.344;2023-07-02T11:02:14;17.65;;;10.27;;
12900;SDS011;6518;50.930;5.344;2023-07-02T11:04:41;22.52;;;11.02;;
12900;SDS011;6518;50.930;5.344;2023-07-02T11:07:09;19.05;;;10.82;;
12900;SDS011;6518;50.930;5.344;2023-07-02T11:09:37;22.83;;;11.48;;
12900;SDS011;6518;50.930;5.344;2023-07-02T11:12:04;18.35;;;10.70;;
12900;SDS011;6518;50.930;5.344;2023-07-02T11:14:32;18.45;;;10.95;;
12900;SDS011;6518;50.930;5.344;2023-07-02T11:17:01;18.73;;;11.15;;
12900;SDS011;6518;50.930;5.344;2023-07-02T11:19:31;18.45;;;11.27;;
12900;SDS011;6518;50.930;5.344;2023-07-02T11:21:59;22.33;;;11.55;;
12900;SDS011;6518;50.930;5.344;2023-07-02T11:24:30;18.90;;;11.15;;
12900;SDS011;6518;50.930;5.344;2023-07-02T11:26:58;17.38;;;10.60;;
12900;SDS011;6518;50.930;5.344;2023-07-02T11:29:28;19.25;;;10.45;;
12900;SDS011;6518;50.930;5.344;2023-07-02T11:32:03;18.27;;;10.07;;
12900;SDS011;6518;50.930;5.344;2023-07-02T11:34:32;19.38;;;10.57;;
12900;SDS011;6518;50.930;5.344;2023-07-02T11:36:59;19.00;;;10.98;;
12900;SDS011;6518;50.930;5.344;2023-07-02T11:39:26;17.38;;;10.88;;
12900;SDS011;6518;50.930;5.344;2023-07-02T11:41:53;18.30;;;10.02;;
12900;SDS011;6518;50.930;5.344;2023-07-02T11:44:20;18.33;;;10.63;;
12900;SDS011;6518;50.930;5.344;2023-07-02T11:46:47;21.65;;;10.80;;
12900;SDS011;6518;50.930;5.344;2023-07-02T11:49:14;20.80;;;10.63;;
12900;SDS011;6518;50.930;5.344;2023-07-02T11:51:43;24.20;;;11.80;;
12900;SDS011;6518;50.930;5.344;2023-07-02T11:54:13;21.90;;;11.15;;
12900;SDS011;6518;50.930;5.344;2023-07-02T11:56:40;19.08;;;10.70;;
12900;SDS011;6518;50.930;5.344;2023-07-02T11:59:07;21.17;;;11.10;;
12900;SDS011;6518;50.930;5.344;2023-07-02T12:01:34;17.23;;;10.82;;
12900;SDS011;6518;50.930;5.344;2023-07-02T12:04:01;22.63;;;12.43;;
12900;SDS011;6518;50.930;5.344;2023-07-02T12:06:28;18.95;;;10.82;;
12900;SDS011;6518;50.930;5.344;2023-07-02T12:08:56;19.08;;;11.20;;
12900;SDS011;6518;50.930;5.344;2023-07-02T12:11:23;20.25;;;10.95;;
12900;SDS011;6518;50.930;5.344;2023-07-02T12:13:50;17.88;;;11.38;;
12900;SDS011;6518;50.930;5.344;2023-07-02T12:16:17;20.70;;;10.73;;
12900;SDS011;6518;50.930;5.344;2023-07-02T12:18:44;18.83;;;11.35;;
12900;SDS011;6518;50.930;5.344;2023-07-02T12:21:10;18.90;;;10.50;;
12900;SDS011;6518;50.930;5.344;2023-07-02T12:23:37;23.73;;;11.18;;
12900;SDS011;6518;50.930;5.344;2023-07-02T12:26:05;19.25;;;10.23;;
12900;SDS011;6518;50.930;5.344;2023-07-02T12:28:32;18.42;;;10.52;;
12900;SDS011;6518;50.930;5.344;2023-07-02T12:30:59;21.35;;;10.90;;
12900;SDS011;6518;50.930;5.344;2023-07-02T12:33:27;20.83;;;10.27;;
12900;SDS011;6518;50.930;5.344;2023-07-02T12:35:54;21.42;;;11.35;;
12900;SDS011;6518;50.930;5.344;2023-07-02T12:38:21;20.20;;;10.68;;
12900;SDS011;6518;50.930;5.344;2023-07-02T12:40:48;21.63;;;10.80;;
12900;SDS011;6518;50.930;5.344;2023-07-02T12:43:16;22.35;;;10.45;;
12900;SDS011;6518;50.930;5.344;2023-07-02T12:45:44;17.58;;;10.90;;
12900;SDS011;6518;50.930;5.344;2023-07-02T12:48:11;19.13;;;9.98;;
12900;SDS011;6518;50.930;5.344;2023-07-02T12:50:38;18.05;;;10.25;;
12900;SDS011;6518;50.930;5.344;2023-07-02T12:53:05;15.82;;;8.80;;
12900;SDS011;6518;50.930;5.344;2023-07-02T12:55:32;13.73;;;8.60;;
12900;SDS011;6518;50.930;5.344;2023-07-02T12:57:59;18.85;;;10.75;;
12900;SDS011;6518;50.930;5.344;2023-07-02T13:00:27;21.92;;;9.93;;
12900;SDS011;6518;50.930;5.344;2023-07-02T13:02:54;17.48;;;9.85;;
12900;SDS011;6518;50.930;5.344;2023-07-02T13:05:21;18.33;;;9.57;;
12900;SDS011;6518;50.930;5.344;2023-07-02T13:07:48;14.55;;;9.82;;
12900;SDS011;6518;50.930;5.344;2023-07-02T13:10:14;18.48;;;9.75;;
12900;SDS011;6518;50.930;5.344;2023-07-02T13:12:41;17.42;;;9.55;;
12900;SDS011;6518;50.930;5.344;2023-07-02T13:15:09;16.65;;;9.38;;
12900;SDS011;6518;50.930;5.344;2023-07-02T13:17:38;18.90;;;9.82;;
12900;SDS011;6518;50.930;5.344;2023-07-02T13:20:06;20.98;;;11.20;;
12900;SDS011;6518;50.930;5.344;2023-07-02T13:22:34;24.17;;;10.25;;
12900;SDS011;6518;50.930;5.344;2023-07-02T13:25:02;17.98;;;9.75;;
12900;SDS011;6518;50.930;5.344;2023-07-02T13:27:30;18.90;;;10.27;;
12900;SDS011;6518;50.930;5.344;2023-07-02T13:29:56;17.08;;;9.75;;
12900;SDS011;6518;50.930;5.344;2023-07-02T13:32:23;17.17;;;9.85;;
12900;SDS011;6518;50.930;5.344;2023-07-02T13:34:52;17.92;;;10.60;;
12900;SDS011;6518;50.930;5.344;2023-07-02T13:37:19;21.48;;;11.30;;
12900;SDS011;6518;50.930;5.344;2023-07-02T13:39:45;20.15;;;10.57;;
12900;SDS011;6518;50.930;5.344;2023-07-02T13:42:13;15.80;;;8.85;;
12900;SDS011;6518;50.930;5.344;2023-07-02T13:44:39;20.05;;;10.88;;
12900;SDS011;6518;50.930;5.344;2023-07-02T13:47:07;13.38;;;8.60;;
12900;SDS011;6518;50.930;5.344;2023-07-02T13:49:34;16.73;;;9.25;;
12900;SDS011;6518;50.930;5.344;2023-07-02T13:52:03;17.42;;;9.10;;
12900;SDS011;6518;50.930;5.344;2023-07-02T13:54:30;21.08;;;9.75;;
12900;SDS011;6518;50.930;5.344;2023-07-02T13:56:57;16.95;;;9.75;;
12900;SDS011;6518;50.930;5.344;2023-07-02T13:59:25;15.52;;;10.00;;
12900;SDS011;6518;50.930;5.344;2023-07-02T14:01:52;17.58;;;9.52;;
12900;SDS011;6518;50.930;5.344;2023-07-02T14:04:19;19.63;;;9.30;;
12900;SDS011;6518;50.930;5.344;2023-07-02T14:06:45;17.85;;;9.57;;
12900;SDS011;6518;50.930;5.344;2023-07-02T14:09:12;15.80;;;9.27;;
12900;SDS011;6518;50.930;5.344;2023-07-02T14:11:40;16.10;;;8.85;;
12900;SDS011;6518;50.930;5.344;2023-07-02T14:14:08;22.67;;;10.18;;
12900;SDS011;6518;50.930;5.344;2023-07-02T14:16:36;19.48;;;9.90;;
12900;SDS011;6518;50.930;5.344;2023-07-02T14:19:03;19.13;;;9.32;;
12900;SDS011;6518;50.930;5.344;2023-07-02T14:21:30;19.23;;;10.65;;
12900;SDS011;6518;50.930;5.344;2023-07-02T14:23:57;17.40;;;8.95;;
12900;SDS011;6518;50.930;5.344;2023-07-02T14:26:24;17.55;;;9.45;;
12900;SDS011;6518;50.930;5.344;2023-07-02T14:28:52;19.63;;;9.63;;
12900;SDS011;6518;50.930;5.344;2023-07-02T14:31:19;15.43;;;9.25;;
12900;SDS011;6518;50.930;5.344;2023-07-02T14:33:49;18.33;;;9.52;;
12900;SDS011;6518;50.930;5.344;2023-07-02T14:36:16;17.67;;;9.52;;
12900;SDS011;6518;50.930;5.344;2023-07-02T14:38:42;18.88;;;9.90;;
12900;SDS011;6518;50.930;5.344;2023-07-02T14:41:10;18.15;;;9.63;;